sensor_id;sensor_type;location;lat;lon;timestamp;temperature;humidity
67748;HTU21D;54543;50.712;6.070;2023-02-07T00:00:45;0.63;89.86
67748;HTU21D;54543;50.712;6.070;2023-02-07T00:03:11;0.59;89.85
67748;HTU21D;54543;50.712;6.070;2023-02-07T00:05:36;0.54;89.92
67748;HTU21D;54543;50.712;6.070;2023-02-07T00:08:03;0.50;89.98
67748;HTU21D;54543;50.712;6.070;2023-02-07T00:10:29;0.47;90.02
67748;HTU21D;54543;50.712;6.070;2023-02-07T00:12:54;0.42;89.99
67748;HTU21D;54543;50.712;6.070;2023-02-07T00:15:20;0.38;90.12
67748;HTU21D;54543;50.712;6.070;2023-02-07T00:17:45;0.36;90.21
67748;HTU21D;54543;50.712;6.070;2023-02-07T00:20:11;0.32;90.25
67748;HTU21D;54543;50.712;6.070;2023-02-07T00:22:36;0.28;90.28
67748;HTU21D;54543;50.712;6.070;2023-02-07T00:25:02;0.23;90.35
67748;HTU21D;54543;50.712;6.070;2023-02-07T00:27:28;0.21;90.39
67748;HTU21D;54543;50.712;6.070;2023-02-07T00:29:54;0.17;90.39
67748;HTU21D;54543;50.712;6.070;2023-02-07T00:32:19;0.14;90.38
67748;HTU21D;54543;50.712;6.070;2023-02-07T00:34:46;0.10;90.47
67748;HTU21D;54543;50.712;6.070;2023-02-07T00:37:11;0.06;90.50
67748;HTU21D;54543;50.712;6.070;2023-02-07T00:39:37;0.04;90.53
67748;HTU21D;54543;50.712;6.070;2023-02-07T00:42:04;0.01;90.59
67748;HTU21D;54543;50.712;6.070;2023-02-07T00:44:30;-0.00;90.69
67748;HTU21D;54543;50.712;6.070;2023-02-07T00:46:57;-0.02;90.80
67748;HTU21D;54543;50.712;6.070;2023-02-07T00:49:23;-0.05;90.76
67748;HTU21D;54543;50.712;6.070;2023-02-07T00:51:49;-0.09;90.71
67748;HTU21D;54543;50.712;6.070;2023-02-07T00:54:15;-0.11;90.73
67748;HTU21D;54543;50.712;6.070;2023-02-07T00:56:41;-0.14;90.76
67748;HTU21D;54543;50.712;6.070;2023-02-07T00:59:06;-0.17;90.85
67748;HTU21D;54543;50.712;6.070;2023-02-07T01:01:32;-0.19;90.98
67748;HTU21D;54543;50.712;6.070;2023-02-07T01:03:57;-0.21;91.07
67748;HTU21D;54543;50.712;6.070;2023-02-07T01:06:23;-0.20;91.11
67748;HTU21D;54543;50.712;6.070;2023-02-07T01:08:49;-0.23;91.16
67748;HTU21D;54543;50.712;6.070;2023-02-07T01:11:15;-0.23;91.24
67748;HTU21D;54543;50.712;6.070;2023-02-07T01:13:42;-0.25;91.34
67748;HTU21D;54543;50.712;6.070;2023-02-07T01:16:26;-0.25;91.40
67748;HTU21D;54543;50.712;6.070;2023-02-07T01:18:52;-0.27;91.31
67748;HTU21D;54543;50.712;6.070;2023-02-07T01:21:23;-0.26;91.25
67748;HTU21D;54543;50.712;6.070;2023-02-07T01:23:49;-0.30;91.21
67748;HTU21D;54543;50.712;6.070;2023-02-07T01:26:16;-0.31;91.18
67748;HTU21D;54543;50.712;6.070;2023-02-07T01:28:41;-0.32;91.24
67748;HTU21D;54543;50.712;6.070;2023-02-07T01:31:09;-0.34;91.34
67748;HTU21D;54543;50.712;6.070;2023-02-07T01:33:35;-0.34;91.40
67748;HTU21D;54543;50.712;6.070;2023-02-07T01:36:09;-0.36;91.30
67748;HTU21D;54543;50.712;6.070;2023-02-07T01:38:35;-0.39;91.22
67748;HTU21D;54543;50.712;6.070;2023-02-07T01:41:00;-0.42;91.37
67748;HTU21D;54543;50.712;6.070;2023-02-07T01:43:26;-0.42;91.65
67748;HTU21D;54543;50.712;6.070;2023-02-07T01:45:52;-0.41;91.52
67748;HTU21D;54543;50.712;6.070;2023-02-07T01:48:34;-0.43;91.49
67748;HTU21D;54543;50.712;6.070;2023-02-07T01:51:04;-0.42;91.46
67748;HTU21D;54543;50.712;6.070;2023-02-07T01:53:32;-0.47;91.76
67748;HTU21D;54543;50.712;6.070;2023-02-07T01:56:02;-0.49;91.69
67748;HTU21D;54543;50.712;6.070;2023-02-07T01:58:32;-0.53;91.60
67748;HTU21D;54543;50.712;6.070;2023-02-07T02:01:00;-0.57;91.38
67748;HTU21D;54543;50.712;6.070;2023-02-07T02:03:27;-0.59;91.28
67748;HTU21D;54543;50.712;6.070;2023-02-07T02:05:53;-0.62;91.25
67748;HTU21D;54543;50.712;6.070;2023-02-07T02:08:21;-0.65;91.13
67748;HTU21D;54543;50.712;6.070;2023-02-07T02:10:50;-0.68;91.07
67748;HTU21D;54543;50.712;6.070;2023-02-07T02:21:23;-0.77;91.31
67748;HTU21D;54543;50.712;6.070;2023-02-07T02:32:43;-0.79;91.11
67748;HTU21D;54543;50.712;6.070;2023-02-07T02:43:45;-0.84;90.92
67748;HTU21D;54543;50.712;6.070;2023-02-07T02:46:17;-0.83;90.69
67748;HTU21D;54543;50.712;6.070;2023-02-07T02:48:45;-0.86;90.50
67748;HTU21D;54543;50.712;6.070;2023-02-07T02:51:11;-0.86;90.44
67748;HTU21D;54543;50.712;6.070;2023-02-07T02:53:37;-0.88;90.41
67748;HTU21D;54543;50.712;6.070;2023-02-07T02:56:12;-0.89;90.44
67748;HTU21D;54543;50.712;6.070;2023-02-07T03:01:33;-0.94;90.46
67748;HTU21D;54543;50.712;6.070;2023-02-07T03:06:54;-0.99;90.24
67748;HTU21D;54543;50.712;6.070;2023-02-07T03:12:47;-1.02;90.37
67748;HTU21D;54543;50.712;6.070;2023-02-07T03:17:52;-0.98;90.02
67748;HTU21D;54543;50.712;6.070;2023-02-07T03:20:34;-1.00;89.89
67748;HTU21D;54543;50.712;6.070;2023-02-07T03:23:02;-1.02;89.80
67748;HTU21D;54543;50.712;6.070;2023-02-07T03:25:29;-1.02;89.75
67748;HTU21D;54543;50.712;6.070;2023-02-07T03:27:56;-1.03;89.72
67748;HTU21D;54543;50.712;6.070;2023-02-07T03:30:25;-1.06;89.61
67748;HTU21D;54543;50.712;6.070;2023-02-07T03:32:56;-1.10;89.62
67748;HTU21D;54543;50.712;6.070;2023-02-07T03:35:34;-1.12;89.67
67748;HTU21D;54543;50.712;6.070;2023-02-07T03:38:02;-1.14;89.81
67748;HTU21D;54543;50.712;6.070;2023-02-07T03:40:35;-1.15;89.83
67748;HTU21D;54543;50.712;6.070;2023-02-07T03:43:09;-1.16;89.76
67748;HTU21D;54543;50.712;6.070;2023-02-07T03:45:35;-1.20;89.72
67748;HTU21D;54543;50.712;6.070;2023-02-07T03:48:01;-1.23;89.65
67748;HTU21D;54543;50.712;6.070;2023-02-07T03:50:27;-1.28;89.66
67748;HTU21D;54543;50.712;6.070;2023-02-07T03:52:52;-1.30;89.70
67748;HTU21D;54543;50.712;6.070;2023-02-07T03:55:18;-1.32;89.73
67748;HTU21D;54543;50.712;6.070;2023-02-07T03:57:43;-1.35;89.76
67748;HTU21D;54543;50.712;6.070;2023-02-07T04:00:09;-1.36;89.81
67748;HTU21D;54543;50.712;6.070;2023-02-07T04:02:35;-1.40;89.82
67748;HTU21D;54543;50.712;6.070;2023-02-07T04:05:00;-1.42;89.83
67748;HTU21D;54543;50.712;6.070;2023-02-07T04:07:26;-1.45;90.06
67748;HTU21D;54543;50.712;6.070;2023-02-07T04:09:52;-1.46;89.98
67748;HTU21D;54543;50.712;6.070;2023-02-07T04:12:17;-1.50;89.95
67748;HTU21D;54543;50.712;6.070;2023-02-07T04:14:43;-1.53;89.92
67748;HTU21D;54543;50.712;6.070;2023-02-07T04:17:08;-1.56;89.95
67748;HTU21D;54543;50.712;6.070;2023-02-07T04:19:34;-1.59;89.91
67748;HTU21D;54543;50.712;6.070;2023-02-07T04:21:59;-1.61;89.97
67748;HTU21D;54543;50.712;6.070;2023-02-07T04:24:25;-1.64;90.05
67748;HTU21D;54543;50.712;6.070;2023-02-07T04:26:50;-1.67;90.25
67748;HTU21D;54543;50.712;6.070;2023-02-07T04:29:16;-1.68;90.26
67748;HTU21D;54543;50.712;6.070;2023-02-07T04:31:42;-1.71;90.27
67748;HTU21D;54543;50.712;6.070;2023-02-07T04:34:08;-1.73;90.31
67748;HTU21D;54543;50.712;6.070;2023-02-07T04:36:37;-1.73;90.30
67748;HTU21D;54543;50.712;6.070;2023-02-07T04:39:02;-1.73;90.32
67748;HTU21D;54543;50.712;6.070;2023-02-07T04:41:28;-1.74;90.38
67748;HTU21D;54543;50.712;6.070;2023-02-07T04:43:53;-1.74;90.34
67748;HTU21D;54543;50.712;6.070;2023-02-07T04:46:19;-1.74;90.23
67748;HTU21D;54543;50.712;6.070;2023-02-07T04:48:45;-1.76;90.16
67748;HTU21D;54543;50.712;6.070;2023-02-07T04:51:12;-1.77;90.13
67748;HTU21D;54543;50.712;6.070;2023-02-07T04:53:38;-1.78;90.05
67748;HTU21D;54543;50.712;6.070;2023-02-07T04:56:04;-1.79;90.12
67748;HTU21D;54543;50.712;6.070;2023-02-07T04:58:29;-1.78;90.18
67748;HTU21D;54543;50.712;6.070;2023-02-07T05:00:55;-1.78;90.15
67748;HTU21D;54543;50.712;6.070;2023-02-07T05:03:20;-1.77;90.15
67748;HTU21D;54543;50.712;6.070;2023-02-07T05:05:46;-1.77;90.14
67748;HTU21D;54543;50.712;6.070;2023-02-07T05:08:12;-1.78;90.13
67748;HTU21D;54543;50.712;6.070;2023-02-07T05:10:38;-1.77;90.15
67748;HTU21D;54543;50.712;6.070;2023-02-07T05:13:04;-1.76;90.18
67748;HTU21D;54543;50.712;6.070;2023-02-07T05:15:30;-1.74;90.22
67748;HTU21D;54543;50.712;6.070;2023-02-07T05:17:56;-1.72;90.19
67748;HTU21D;54543;50.712;6.070;2023-02-07T05:20:23;-1.74;90.06
67748;HTU21D;54543;50.712;6.070;2023-02-07T05:22:49;-1.73;90.08
67748;HTU21D;54543;50.712;6.070;2023-02-07T05:25:15;-1.74;90.00
67748;HTU21D;54543;50.712;6.070;2023-02-07T05:27:40;-1.75;90.02
67748;HTU21D;54543;50.712;6.070;2023-02-07T05:30:06;-1.76;89.94
67748;HTU21D;54543;50.712;6.070;2023-02-07T05:32:32;-1.78;89.96
67748;HTU21D;54543;50.712;6.070;2023-02-07T05:35:16;-1.79;89.92
67748;HTU21D;54543;50.712;6.070;2023-02-07T05:37:42;-1.80;89.89
67748;HTU21D;54543;50.712;6.070;2023-02-07T05:40:08;-1.83;89.91
67748;HTU21D;54543;50.712;6.070;2023-02-07T05:42:34;-1.85;90.08
67748;HTU21D;54543;50.712;6.070;2023-02-07T05:44:59;-1.85;89.96
67748;HTU21D;54543;50.712;6.070;2023-02-07T05:47:25;-1.85;90.01
67748;HTU21D;54543;50.712;6.070;2023-02-07T05:49:51;-1.86;89.92
67748;HTU21D;54543;50.712;6.070;2023-02-07T05:52:16;-1.87;89.88
67748;HTU21D;54543;50.712;6.070;2023-02-07T05:54:42;-1.88;89.93
67748;HTU21D;54543;50.712;6.070;2023-02-07T05:57:07;-1.89;89.95
67748;HTU21D;54543;50.712;6.070;2023-02-07T05:59:33;-1.92;90.00
67748;HTU21D;54543;50.712;6.070;2023-02-07T06:01:58;-1.89;89.99
67748;HTU21D;54543;50.712;6.070;2023-02-07T06:04:24;-1.90;89.99
67748;HTU21D;54543;50.712;6.070;2023-02-07T06:06:50;-1.91;89.95
67748;HTU21D;54543;50.712;6.070;2023-02-07T06:09:16;-1.93;89.89
67748;HTU21D;54543;50.712;6.070;2023-02-07T06:11:41;-1.95;89.80
67748;HTU21D;54543;50.712;6.070;2023-02-07T06:14:07;-1.98;89.85
67748;HTU21D;54543;50.712;6.070;2023-02-07T06:16:32;-1.99;89.84
67748;HTU21D;54543;50.712;6.070;2023-02-07T06:18:58;-2.02;89.82
67748;HTU21D;54543;50.712;6.070;2023-02-07T06:21:23;-2.02;89.91
67748;HTU21D;54543;50.712;6.070;2023-02-07T06:23:49;-2.01;90.00
67748;HTU21D;54543;50.712;6.070;2023-02-07T06:26:16;-2.00;90.04
67748;HTU21D;54543;50.712;6.070;2023-02-07T06:28:42;-2.01;90.12
67748;HTU21D;54543;50.712;6.070;2023-02-07T06:31:08;-2.01;90.05
67748;HTU21D;54543;50.712;6.070;2023-02-07T06:33:33;-2.02;90.04
67748;HTU21D;54543;50.712;6.070;2023-02-07T06:35:58;-2.03;89.97
67748;HTU21D;54543;50.712;6.070;2023-02-07T06:38:24;-2.04;90.03
67748;HTU21D;54543;50.712;6.070;2023-02-07T06:40:50;-2.03;90.15
67748;HTU21D;54543;50.712;6.070;2023-02-07T06:43:15;-2.03;90.18
67748;HTU21D;54543;50.712;6.070;2023-02-07T06:45:41;-1.99;90.16
67748;HTU21D;54543;50.712;6.070;2023-02-07T06:48:07;-2.00;90.13
67748;HTU21D;54543;50.712;6.070;2023-02-07T06:50:33;-1.98;90.05
67748;HTU21D;54543;50.712;6.070;2023-02-07T06:52:58;-1.99;89.92
67748;HTU21D;54543;50.712;6.070;2023-02-07T06:55:39;-1.99;89.80
67748;HTU21D;54543;50.712;6.070;2023-02-07T06:58:05;-2.00;89.85
67748;HTU21D;54543;50.712;6.070;2023-02-07T07:00:31;-1.99;89.91
67748;HTU21D;54543;50.712;6.070;2023-02-07T07:02:57;-1.98;89.92
67748;HTU21D;54543;50.712;6.070;2023-02-07T07:05:27;-1.95;89.90
67748;HTU21D;54543;50.712;6.070;2023-02-07T07:07:54;-1.95;89.74
67748;HTU21D;54543;50.712;6.070;2023-02-07T07:10:20;-1.94;89.70
67748;HTU21D;54543;50.712;6.070;2023-02-07T07:12:46;-1.93;89.64
67748;HTU21D;54543;50.712;6.070;2023-02-07T07:15:11;-1.93;89.63
67748;HTU21D;54543;50.712;6.070;2023-02-07T07:17:37;-1.91;89.51
67748;HTU21D;54543;50.712;6.070;2023-02-07T07:20:03;-1.91;89.50
67748;HTU21D;54543;50.712;6.070;2023-02-07T07:22:29;-1.92;89.35
67748;HTU21D;54543;50.712;6.070;2023-02-07T07:24:54;-1.93;89.34
67748;HTU21D;54543;50.712;6.070;2023-02-07T07:27:20;-1.91;89.36
67748;HTU21D;54543;50.712;6.070;2023-02-07T07:29:46;-1.89;89.47
67748;HTU21D;54543;50.712;6.070;2023-02-07T07:32:11;-1.86;89.44
67748;HTU21D;54543;50.712;6.070;2023-02-07T07:34:37;-1.84;89.25
67748;HTU21D;54543;50.712;6.070;2023-02-07T07:37:03;-1.80;89.12
67748;HTU21D;54543;50.712;6.070;2023-02-07T07:39:28;-1.76;89.15
67748;HTU21D;54543;50.712;6.070;2023-02-07T07:41:54;-1.72;89.00
67748;HTU21D;54543;50.712;6.070;2023-02-07T07:44:20;-1.65;88.96
67748;HTU21D;54543;50.712;6.070;2023-02-07T07:46:45;-1.61;88.75
67748;HTU21D;54543;50.712;6.070;2023-02-07T07:49:11;-1.56;88.64
67748;HTU21D;54543;50.712;6.070;2023-02-07T07:51:36;-1.48;88.60
67748;HTU21D;54543;50.712;6.070;2023-02-07T07:54:02;-1.41;88.37
67748;HTU21D;54543;50.712;6.070;2023-02-07T07:56:28;-1.34;88.22
67748;HTU21D;54543;50.712;6.070;2023-02-07T07:58:57;-1.26;88.15
67748;HTU21D;54543;50.712;6.070;2023-02-07T08:01:22;-1.21;87.96
67748;HTU21D;54543;50.712;6.070;2023-02-07T08:03:48;-1.17;87.81
67748;HTU21D;54543;50.712;6.070;2023-02-07T08:06:13;-1.11;87.74
67748;HTU21D;54543;50.712;6.070;2023-02-07T08:08:39;-1.06;87.62
67748;HTU21D;54543;50.712;6.070;2023-02-07T08:11:08;-1.00;87.44
67748;HTU21D;54543;50.712;6.070;2023-02-07T08:13:35;-0.96;87.10
67748;HTU21D;54543;50.712;6.070;2023-02-07T08:16:01;-0.90;87.03
67748;HTU21D;54543;50.712;6.070;2023-02-07T08:18:27;-0.84;86.39
67748;HTU21D;54543;50.712;6.070;2023-02-07T08:20:53;-0.75;86.45
67748;HTU21D;54543;50.712;6.070;2023-02-07T08:23:19;-0.65;86.29
67748;HTU21D;54543;50.712;6.070;2023-02-07T08:25:44;-0.55;85.45
67748;HTU21D;54543;50.712;6.070;2023-02-07T08:28:12;-0.45;85.07
67748;HTU21D;54543;50.712;6.070;2023-02-07T08:30:38;-0.37;84.23
67748;HTU21D;54543;50.712;6.070;2023-02-07T08:33:03;-0.27;84.01
67748;HTU21D;54543;50.712;6.070;2023-02-07T08:35:29;-0.19;83.59
67748;HTU21D;54543;50.712;6.070;2023-02-07T08:37:55;-0.11;83.45
67748;HTU21D;54543;50.712;6.070;2023-02-07T08:40:23;-0.01;83.14
67748;HTU21D;54543;50.712;6.070;2023-02-07T08:42:48;0.07;83.42
67748;HTU21D;54543;50.712;6.070;2023-02-07T08:45:14;0.16;82.98
67748;HTU21D;54543;50.712;6.070;2023-02-07T08:47:44;0.24;82.76
67748;HTU21D;54543;50.712;6.070;2023-02-07T08:50:11;0.35;82.46
67748;HTU21D;54543;50.712;6.070;2023-02-07T08:52:37;0.47;82.39
67748;HTU21D;54543;50.712;6.070;2023-02-07T08:55:04;0.58;81.55
67748;HTU21D;54543;50.712;6.070;2023-02-07T08:57:29;0.68;80.77
67748;HTU21D;54543;50.712;6.070;2023-02-07T08:59:55;0.78;80.14
67748;HTU21D;54543;50.712;6.070;2023-02-07T09:02:21;0.88;80.70
67748;HTU21D;54543;50.712;6.070;2023-02-07T09:04:46;0.98;79.76
67748;HTU21D;54543;50.712;6.070;2023-02-07T09:07:12;1.08;79.72
67748;HTU21D;54543;50.712;6.070;2023-02-07T09:09:38;1.21;79.83
67748;HTU21D;54543;50.712;6.070;2023-02-07T09:12:05;1.31;79.97
67748;HTU21D;54543;50.712;6.070;2023-02-07T09:14:31;1.41;79.24
67748;HTU21D;54543;50.712;6.070;2023-02-07T09:16:56;1.48;79.42
67748;HTU21D;54543;50.712;6.070;2023-02-07T09:19:22;1.56;79.62
67748;HTU21D;54543;50.712;6.070;2023-02-07T09:21:48;1.65;79.82
67748;HTU21D;54543;50.712;6.070;2023-02-07T09:24:13;1.72;79.54
67748;HTU21D;54543;50.712;6.070;2023-02-07T09:26:39;1.81;78.85
67748;HTU21D;54543;50.712;6.070;2023-02-07T09:29:05;1.90;79.11
67748;HTU21D;54543;50.712;6.070;2023-02-07T09:31:33;1.98;78.90
67748;HTU21D;54543;50.712;6.070;2023-02-07T09:33:58;2.03;78.75
67748;HTU21D;54543;50.712;6.070;2023-02-07T09:36:28;2.11;78.56
67748;HTU21D;54543;50.712;6.070;2023-02-07T09:38:54;2.19;78.66
67748;HTU21D;54543;50.712;6.070;2023-02-07T09:47:04;2.43;77.48
67748;HTU21D;54543;50.712;6.070;2023-02-07T09:51:56;2.64;76.95
67748;HTU21D;54543;50.712;6.070;2023-02-07T09:54:42;2.73;74.15
67748;HTU21D;54543;50.712;6.070;2023-02-07T09:57:30;2.85;75.67
67748;HTU21D;54543;50.712;6.070;2023-02-07T10:02:40;3.09;75.79
67748;HTU21D;54543;50.712;6.070;2023-02-07T10:05:20;3.19;72.77
67748;HTU21D;54543;50.712;6.070;2023-02-07T10:07:47;3.28;74.86
67748;HTU21D;54543;50.712;6.070;2023-02-07T10:10:17;3.38;75.15
67748;HTU21D;54543;50.712;6.070;2023-02-07T10:12:50;3.48;75.50
67748;HTU21D;54543;50.712;6.070;2023-02-07T10:18:15;3.65;72.93
67748;HTU21D;54543;50.712;6.070;2023-02-07T10:20:54;3.73;72.81
67748;HTU21D;54543;50.712;6.070;2023-02-07T10:23:49;3.80;68.95
67748;HTU21D;54543;50.712;6.070;2023-02-07T10:26:40;3.89;70.19
67748;HTU21D;54543;50.712;6.070;2023-02-07T10:29:29;3.98;69.98
67748;HTU21D;54543;50.712;6.070;2023-02-07T10:32:02;4.05;72.37
67748;HTU21D;54543;50.712;6.070;2023-02-07T10:34:34;4.13;72.32
67748;HTU21D;54543;50.712;6.070;2023-02-07T10:37:23;4.21;70.75
67748;HTU21D;54543;50.712;6.070;2023-02-07T10:40:18;4.33;67.52
67748;HTU21D;54543;50.712;6.070;2023-02-07T10:42:51;4.42;71.79
67748;HTU21D;54543;50.712;6.070;2023-02-07T10:45:18;4.50;71.84
67748;HTU21D;54543;50.712;6.070;2023-02-07T10:47:44;4.59;72.36
67748;HTU21D;54543;50.712;6.070;2023-02-07T10:50:16;4.68;71.14
67748;HTU21D;54543;50.712;6.070;2023-02-07T10:53:02;4.80;68.09
67748;HTU21D;54543;50.712;6.070;2023-02-07T10:55:46;4.90;63.89
67748;HTU21D;54543;50.712;6.070;2023-02-07T10:58:17;5.02;69.07
67748;HTU21D;54543;50.712;6.070;2023-02-07T11:00:51;5.11;70.34
67748;HTU21D;54543;50.712;6.070;2023-02-07T11:03:26;5.18;60.71
67748;HTU21D;54543;50.712;6.070;2023-02-07T11:05:56;5.26;67.20
67748;HTU21D;54543;50.712;6.070;2023-02-07T11:08:28;5.36;69.07
67748;HTU21D;54543;50.712;6.070;2023-02-07T11:10:56;5.46;69.51
67748;HTU21D;54543;50.712;6.070;2023-02-07T11:13:28;5.55;68.32
67748;HTU21D;54543;50.712;6.070;2023-02-07T11:16:15;5.64;65.31
67748;HTU21D;54543;50.712;6.070;2023-02-07T11:18:42;5.71;68.31
67748;HTU21D;54543;50.712;6.070;2023-02-07T11:21:27;5.76;64.19
67748;HTU21D;54543;50.712;6.070;2023-02-07T11:24:05;5.84;68.58
67748;HTU21D;54543;50.712;6.070;2023-02-07T11:26:34;5.92;67.37
67748;HTU21D;54543;50.712;6.070;2023-02-07T11:29:20;5.98;67.83
67748;HTU21D;54543;50.712;6.070;2023-02-07T11:31:48;6.08;67.55
67748;HTU21D;54543;50.712;6.070;2023-02-07T11:37:16;6.23;66.02
67748;HTU21D;54543;50.712;6.070;2023-02-07T11:39:47;6.33;67.33
67748;HTU21D;54543;50.712;6.070;2023-02-07T11:42:20;6.38;64.82
67748;HTU21D;54543;50.712;6.070;2023-02-07T11:44:47;6.44;66.55
67748;HTU21D;54543;50.712;6.070;2023-02-07T11:47:24;6.53;66.27
67748;HTU21D;54543;50.712;6.070;2023-02-07T11:49:57;6.59;62.80
67748;HTU21D;54543;50.712;6.070;2023-02-07T11:52:24;6.61;64.01
67748;HTU21D;54543;50.712;6.070;2023-02-07T11:54:56;6.66;61.10
67748;HTU21D;54543;50.712;6.070;2023-02-07T11:57:23;6.71;65.58
67748;HTU21D;54543;50.712;6.070;2023-02-07T12:00:06;6.75;64.16
67748;HTU21D;54543;50.712;6.070;2023-02-07T12:03:02;6.79;65.17
67748;HTU21D;54543;50.712;6.070;2023-02-07T12:05:34;6.76;63.27
67748;HTU21D;54543;50.712;6.070;2023-02-07T12:08:05;6.80;64.79
67748;HTU21D;54543;50.712;6.070;2023-02-07T12:10:35;6.83;64.73
67748;HTU21D;54543;50.712;6.070;2023-02-07T12:15:47;6.80;62.37
67748;HTU21D;54543;50.712;6.070;2023-02-07T12:18:28;6.83;59.86
67748;HTU21D;54543;50.712;6.070;2023-02-07T12:31:40;6.88;59.35
67748;HTU21D;54543;50.712;6.070;2023-02-07T12:34:24;6.89;62.86
67748;HTU21D;54543;50.712;6.070;2023-02-07T12:37:10;6.88;59.01
67748;HTU21D;54543;50.712;6.070;2023-02-07T12:42:56;6.86;61.53
67748;HTU21D;54543;50.712;6.070;2023-02-07T12:56:14;6.93;60.09
67748;HTU21D;54543;50.712;6.070;2023-02-07T13:04:33;6.90;65.43
67748;HTU21D;54543;50.712;6.070;2023-02-07T13:09:42;6.99;66.17
67748;HTU21D;54543;50.712;6.070;2023-02-07T13:18:12;7.07;64.37
67748;HTU21D;54543;50.712;6.070;2023-02-07T13:21:10;7.03;63.09
67748;HTU21D;54543;50.712;6.070;2023-02-07T13:23:43;6.93;65.44
67748;HTU21D;54543;50.712;6.070;2023-02-07T13:26:13;6.94;65.23
67748;HTU21D;54543;50.712;6.070;2023-02-07T13:28:54;6.94;61.07
67748;HTU21D;54543;50.712;6.070;2023-02-07T13:33:54;6.93;66.62
67748;HTU21D;54543;50.712;6.070;2023-02-07T13:36:43;6.95;62.94
67748;HTU21D;54543;50.712;6.070;2023-02-07T13:39:15;6.99;66.47
67748;HTU21D;54543;50.712;6.070;2023-02-07T13:41:51;7.03;65.17
67748;HTU21D;54543;50.712;6.070;2023-02-07T13:44:30;7.07;63.08
67748;HTU21D;54543;50.712;6.070;2023-02-07T13:47:21;7.01;59.55
67748;HTU21D;54543;50.712;6.070;2023-02-07T13:50:03;7.03;65.77
67748;HTU21D;54543;50.712;6.070;2023-02-07T14:00:21;7.12;66.48
67748;HTU21D;54543;50.712;6.070;2023-02-07T14:02:58;7.09;65.33
67748;HTU21D;54543;50.712;6.070;2023-02-07T14:05:34;7.08;65.14
67748;HTU21D;54543;50.712;6.070;2023-02-07T14:08:06;7.09;65.54
67748;HTU21D;54543;50.712;6.070;2023-02-07T14:10:48;7.09;65.31
67748;HTU21D;54543;50.712;6.070;2023-02-07T14:18:45;7.03;61.17
67748;HTU21D;54543;50.712;6.070;2023-02-07T14:21:24;7.03;62.70
67748;HTU21D;54543;50.712;6.070;2023-02-07T14:24:28;7.04;62.08
67748;HTU21D;54543;50.712;6.070;2023-02-07T14:27:00;7.02;63.98
67748;HTU21D;54543;50.712;6.070;2023-02-07T14:31:59;7.00;64.42
67748;HTU21D;54543;50.712;6.070;2023-02-07T14:34:30;6.88;57.93
67748;HTU21D;54543;50.712;6.070;2023-02-07T14:36:56;6.81;59.61
67748;HTU21D;54543;50.712;6.070;2023-02-07T14:39:33;6.75;64.03
67748;HTU21D;54543;50.712;6.070;2023-02-07T14:42:19;6.73;59.91
67748;HTU21D;54543;50.712;6.070;2023-02-07T14:44:47;6.70;65.27
67748;HTU21D;54543;50.712;6.070;2023-02-07T14:47:22;6.70;65.56
67748;HTU21D;54543;50.712;6.070;2023-02-07T14:49:52;6.60;62.82
67748;HTU21D;54543;50.712;6.070;2023-02-07T14:52:27;6.52;63.37
67748;HTU21D;54543;50.712;6.070;2023-02-07T14:54:57;6.42;63.74
67748;HTU21D;54543;50.712;6.070;2023-02-07T15:02:42;6.26;65.21
67748;HTU21D;54543;50.712;6.070;2023-02-07T15:10:28;6.07;64.37
67748;HTU21D;54543;50.712;6.070;2023-02-07T15:12:55;6.00;65.80
67748;HTU21D;54543;50.712;6.070;2023-02-07T15:15:26;5.95;64.87
67748;HTU21D;54543;50.712;6.070;2023-02-07T15:17:54;5.90;65.47
67748;HTU21D;54543;50.712;6.070;2023-02-07T15:20:27;5.84;65.54
67748;HTU21D;54543;50.712;6.070;2023-02-07T15:22:54;5.80;65.54
67748;HTU21D;54543;50.712;6.070;2023-02-07T15:25:21;5.79;66.04
67748;HTU21D;54543;50.712;6.070;2023-02-07T15:31:03;5.97;66.20
67748;HTU21D;54543;50.712;6.070;2023-02-07T15:33:37;6.10;65.47
67748;HTU21D;54543;50.712;6.070;2023-02-07T15:36:24;6.19;67.40
67748;HTU21D;54543;50.712;6.070;2023-02-07T15:38:51;6.25;66.71
67748;HTU21D;54543;50.712;6.070;2023-02-07T15:41:16;6.30;68.55
67748;HTU21D;54543;50.712;6.070;2023-02-07T15:44:02;6.40;65.65
67748;HTU21D;54543;50.712;6.070;2023-02-07T15:49:26;6.65;67.31
67748;HTU21D;54543;50.712;6.070;2023-02-07T15:51:54;6.74;69.92
67748;HTU21D;54543;50.712;6.070;2023-02-07T15:54:21;6.80;70.53
67748;HTU21D;54543;50.712;6.070;2023-02-07T15:56:51;6.73;69.28
67748;HTU21D;54543;50.712;6.070;2023-02-07T15:59:22;6.64;70.23
67748;HTU21D;54543;50.712;6.070;2023-02-07T16:01:53;6.56;69.90
67748;HTU21D;54543;50.712;6.070;2023-02-07T16:04:23;6.51;69.14
67748;HTU21D;54543;50.712;6.070;2023-02-07T16:07:09;6.42;65.14
67748;HTU21D;54543;50.712;6.070;2023-02-07T16:09:41;6.31;67.65
67748;HTU21D;54543;50.712;6.070;2023-02-07T16:12:30;6.05;63.72
67748;HTU21D;54543;50.712;6.070;2023-02-07T16:15:00;5.81;68.94
67748;HTU21D;54543;50.712;6.070;2023-02-07T16:17:37;5.55;65.61
67748;HTU21D;54543;50.712;6.070;2023-02-07T16:20:03;5.33;69.34
67748;HTU21D;54543;50.712;6.070;2023-02-07T16:22:29;5.12;69.26
67748;HTU21D;54543;50.712;6.070;2023-02-07T16:24:58;4.94;70.15
67748;HTU21D;54543;50.712;6.070;2023-02-07T16:27:25;4.77;69.42
67748;HTU21D;54543;50.712;6.070;2023-02-07T16:29:57;4.58;67.47
67748;HTU21D;54543;50.712;6.070;2023-02-07T16:32:24;4.39;69.15
67748;HTU21D;54543;50.712;6.070;2023-02-07T16:34:52;4.23;69.61
67748;HTU21D;54543;50.712;6.070;2023-02-07T16:37:17;4.09;69.56
67748;HTU21D;54543;50.712;6.070;2023-02-07T16:39:42;3.94;69.65
67748;HTU21D;54543;50.712;6.070;2023-02-07T16:42:12;3.82;69.64
67748;HTU21D;54543;50.712;6.070;2023-02-07T16:44:39;3.69;69.88
67748;HTU21D;54543;50.712;6.070;2023-02-07T16:47:05;3.58;69.16
67748;HTU21D;54543;50.712;6.070;2023-02-07T16:49:31;3.46;69.71
67748;HTU21D;54543;50.712;6.070;2023-02-07T16:51:57;3.34;69.73
67748;HTU21D;54543;50.712;6.070;2023-02-07T16:54:23;3.26;69.44
67748;HTU21D;54543;50.712;6.070;2023-02-07T16:56:52;3.18;69.54
67748;HTU21D;54543;50.712;6.070;2023-02-07T16:59:19;3.09;69.46
67748;HTU21D;54543;50.712;6.070;2023-02-07T17:01:49;2.98;69.09
67748;HTU21D;54543;50.712;6.070;2023-02-07T17:04:15;2.90;69.21
67748;HTU21D;54543;50.712;6.070;2023-02-07T17:06:42;2.82;69.79
67748;HTU21D;54543;50.712;6.070;2023-02-07T17:09:19;2.72;68.45
67748;HTU21D;54543;50.712;6.070;2023-02-07T17:11:45;2.66;69.33
67748;HTU21D;54543;50.712;6.070;2023-02-07T17:14:11;2.58;69.63
67748;HTU21D;54543;50.712;6.070;2023-02-07T17:16:37;2.52;69.14
67748;HTU21D;54543;50.712;6.070;2023-02-07T17:19:11;2.44;68.01
67748;HTU21D;54543;50.712;6.070;2023-02-07T17:21:37;2.37;68.28
67748;HTU21D;54543;50.712;6.070;2023-02-07T17:24:03;2.32;69.21
67748;HTU21D;54543;50.712;6.070;2023-02-07T17:26:29;2.24;67.36
67748;HTU21D;54543;50.712;6.070;2023-02-07T17:28:57;2.15;67.20
67748;HTU21D;54543;50.712;6.070;2023-02-07T17:31:23;2.09;68.26
67748;HTU21D;54543;50.712;6.070;2023-02-07T17:33:48;2.02;67.44
67748;HTU21D;54543;50.712;6.070;2023-02-07T17:36:15;1.96;67.63
67748;HTU21D;54543;50.712;6.070;2023-02-07T17:38:42;1.94;68.91
67748;HTU21D;54543;50.712;6.070;2023-02-07T17:41:11;1.90;69.78
67748;HTU21D;54543;50.712;6.070;2023-02-07T17:43:37;1.82;70.12
67748;HTU21D;54543;50.712;6.070;2023-02-07T17:48:43;1.68;70.05